createdAt,value
2019-05-29T00:01:35.954Z,1009.40
2019-05-29T00:02:35.848Z,1009.40
2019-05-29T00:04:28.629Z,1009.45
2019-05-29T00:05:28.554Z,1009.42
2019-05-29T00:07:21.338Z,1009.48
2019-05-29T00:08:21.260Z,1009.53
2019-05-29T00:10:14.417Z,1009.58
2019-05-29T00:11:14.314Z,1009.57
2019-05-29T00:13:06.786Z,1009.62
2019-05-29T00:14:21.692Z,1009.62
2019-05-29T00:15:59.465Z,1009.59
2019-05-29T00:16:59.404Z,1009.62
2019-05-29T00:18:52.176Z,1009.63
2019-05-29T00:19:52.095Z,1009.66
2019-05-29T00:21:44.924Z,1009.69
2019-05-29T00:22:44.795Z,1009.69
2019-05-29T00:24:37.565Z,1009.71
2019-05-29T00:25:37.497Z,1009.69
2019-05-29T00:27:30.286Z,1009.66
2019-05-29T00:28:30.215Z,1009.65
2019-05-29T00:30:22.979Z,1009.66
2019-05-29T00:31:22.908Z,1009.63
2019-05-29T00:33:15.714Z,1009.67
2019-05-29T00:34:15.638Z,1009.70
2019-05-29T00:36:08.406Z,1009.72
2019-05-29T00:37:08.551Z,1009.75
2019-05-29T00:39:01.131Z,1009.78
2019-05-29T00:40:01.052Z,1009.77
2019-05-29T00:41:53.859Z,1009.77
2019-05-29T00:42:53.778Z,1009.78
2019-05-29T00:44:46.585Z,1009.76
2019-05-29T00:45:46.529Z,1009.73
2019-05-29T00:47:39.285Z,1009.73
2019-05-29T00:48:39.200Z,1009.72
2019-05-29T00:50:32.938Z,1009.79
2019-05-29T00:51:31.900Z,1009.74
2019-05-29T00:53:24.701Z,1009.82
2019-05-29T00:54:24.610Z,1009.81
2019-05-29T00:56:17.395Z,1009.81
2019-05-29T00:57:17.344Z,1009.83
2019-05-29T00:59:11.073Z,1009.86
2019-05-29T01:00:11.091Z,1009.88
2019-05-29T01:02:02.805Z,1009.93
2019-05-29T01:03:02.738Z,1009.97
2019-05-29T01:04:55.516Z,1009.99
2019-05-29T01:05:55.434Z,1009.98
2019-05-29T01:07:48.197Z,1009.95
2019-05-29T01:08:48.134Z,1009.96
2019-05-29T01:10:40.895Z,1009.98
2019-05-29T01:11:40.822Z,1009.96
2019-05-29T01:13:33.624Z,1009.98
2019-05-29T01:14:48.854Z,1009.99
2019-05-29T01:16:26.304Z,1010.03
2019-05-29T01:17:26.239Z,1010.01
2019-05-29T01:19:20.175Z,1010.09
2019-05-29T01:20:20.005Z,1010.12
2019-05-29T01:22:12.253Z,1010.16
2019-05-29T01:23:12.139Z,1010.14
2019-05-29T01:25:04.517Z,1010.18
2019-05-29T01:26:04.356Z,1010.19
2019-05-29T01:27:57.137Z,1010.22
2019-05-29T01:28:57.048Z,1010.20
2019-05-29T01:30:51.604Z,1010.21
2019-05-29T01:31:49.744Z,1010.23
2019-05-29T01:33:42.520Z,1010.28
2019-05-29T01:34:42.434Z,1010.30
2019-05-29T01:36:35.234Z,1010.36
2019-05-29T01:37:35.147Z,1010.34
2019-05-29T01:39:27.941Z,1010.43
2019-05-29T01:40:29.499Z,1010.42
2019-05-29T01:42:21.494Z,1010.50
2019-05-29T01:43:21.459Z,1010.48
2019-05-29T01:45:13.379Z,1010.53
2019-05-29T01:46:13.271Z,1010.53
2019-05-29T01:48:06.096Z,1010.59
2019-05-29T01:49:06.026Z,1010.61
2019-05-29T01:50:58.788Z,1010.65
2019-05-29T01:51:58.724Z,1010.58
2019-05-29T01:55:28.529Z,1010.71
2019-05-29T01:56:28.467Z,1010.71
2019-05-29T01:58:21.989Z,1010.67
2019-05-29T01:59:21.871Z,1010.73
2019-05-29T02:01:13.917Z,1010.74
2019-05-29T02:02:13.839Z,1010.69
2019-05-29T02:04:06.626Z,1010.68
2019-05-29T02:05:06.544Z,1010.71
2019-05-29T02:06:59.327Z,1010.70
2019-05-29T02:07:59.250Z,1010.75
2019-05-29T02:09:52.032Z,1010.75
2019-05-29T02:10:51.959Z,1010.68
2019-05-29T02:12:44.753Z,1010.75
2019-05-29T02:13:44.652Z,1010.80
2019-05-29T02:15:37.480Z,1010.78
2019-05-29T02:16:37.379Z,1010.80
2019-05-29T02:18:30.163Z,1010.78
2019-05-29T02:19:30.087Z,1010.81
2019-05-29T02:21:24.138Z,1010.87
2019-05-29T02:22:23.105Z,1010.84
2019-05-29T02:24:15.606Z,1010.89
2019-05-29T02:25:17.528Z,1010.93
2019-05-29T02:27:08.297Z,1010.98
2019-05-29T02:28:08.227Z,1011.02
2019-05-29T02:30:01.013Z,1011.07
2019-05-29T02:31:00.926Z,1011.03
2019-05-29T02:32:53.698Z,1011.03
2019-05-29T02:33:53.633Z,1011.06
2019-05-29T02:35:46.433Z,1011.07
2019-05-29T02:36:46.323Z,1011.10
2019-05-29T02:38:39.110Z,1011.08
2019-05-29T02:39:39.034Z,1011.15
2019-05-29T02:41:31.807Z,1011.10
2019-05-29T02:42:31.754Z,1011.10
2019-05-29T02:44:25.429Z,1011.15
2019-05-29T02:45:45.773Z,1011.13
2019-05-29T02:47:17.393Z,1011.17
2019-05-29T02:48:17.340Z,1011.20
2019-05-29T02:50:10.195Z,1011.20
2019-05-29T02:51:12.271Z,1011.17
2019-05-29T02:53:02.807Z,1011.18
2019-05-29T02:54:02.736Z,1011.20
2019-05-29T02:55:55.513Z,1011.22
2019-05-29T02:56:55.474Z,1011.25
2019-05-29T02:58:48.234Z,1011.30
2019-05-29T02:59:48.137Z,1011.31
2019-05-29T03:01:40.886Z,1011.36
2019-05-29T03:02:40.815Z,1011.38
2019-05-29T03:04:33.602Z,1011.42
2019-05-29T03:05:33.535Z,1011.43
2019-05-29T03:07:26.535Z,1011.43
2019-05-29T03:08:27.265Z,1011.49
2019-05-29T03:10:19.036Z,1011.48
2019-05-29T03:11:18.953Z,1011.48
2019-05-29T03:13:11.736Z,1011.53
2019-05-29T03:14:11.662Z,1011.54
2019-05-29T03:16:12.623Z,1011.61
2019-05-29T03:17:04.370Z,1011.67
2019-05-29T03:18:57.148Z,1011.70
2019-05-29T03:19:57.127Z,1011.71
2019-05-29T03:21:49.859Z,1011.76
2019-05-29T03:22:49.773Z,1011.81
2019-05-29T03:24:42.607Z,1011.82
2019-05-29T03:25:42.538Z,1011.85
2019-05-29T03:27:35.301Z,1011.90
2019-05-29T03:28:35.346Z,1011.89
2019-05-29T03:30:31.625Z,1011.98
2019-05-29T03:31:34.198Z,1011.97
2019-05-29T03:33:20.820Z,1012.06
2019-05-29T03:34:20.683Z,1012.04
2019-05-29T03:36:13.643Z,1012.07
2019-05-29T03:37:13.415Z,1012.09
2019-05-29T03:39:06.274Z,1012.09
2019-05-29T03:40:06.167Z,1012.06
2019-05-29T03:41:58.952Z,1012.11
2019-05-29T03:42:58.880Z,1012.13
2019-05-29T03:44:51.704Z,1012.18
2019-05-29T03:45:51.609Z,1012.21
2019-05-29T03:47:44.387Z,1012.25
2019-05-29T03:48:44.322Z,1012.27
2019-05-29T03:50:38.340Z,1012.30
2019-05-29T03:51:38.814Z,1012.32
2019-05-29T03:53:31.485Z,1012.43
2019-05-29T03:54:30.799Z,1012.44
2019-05-29T03:56:22.641Z,1012.48
2019-05-29T03:57:22.562Z,1012.50
2019-05-29T03:59:15.350Z,1012.54
2019-05-29T04:00:15.260Z,1012.55
2019-05-29T04:02:08.083Z,1012.57
2019-05-29T04:03:08.003Z,1012.52
2019-05-29T04:05:00.907Z,1012.61
2019-05-29T04:06:00.717Z,1012.63
2019-05-29T04:07:53.552Z,1012.68
2019-05-29T04:08:53.427Z,1012.69
2019-05-29T04:10:46.186Z,1012.76
2019-05-29T04:11:46.104Z,1012.72
2019-05-29T04:13:39.255Z,1012.74
2019-05-29T04:14:38.812Z,1012.74
2019-05-29T04:16:54.120Z,1012.78
2019-05-29T04:17:32.310Z,1012.82
2019-05-29T04:19:24.321Z,1012.86
2019-05-29T04:20:24.260Z,1012.89
2019-05-29T04:22:17.071Z,1012.87
2019-05-29T04:23:16.954Z,1012.91
2019-05-29T04:25:09.787Z,1012.95
2019-05-29T04:26:09.699Z,1012.96
2019-05-29T04:28:02.584Z,1012.97
2019-05-29T04:29:02.483Z,1013.02
2019-05-29T04:30:55.269Z,1013.08
2019-05-29T04:31:55.165Z,1013.05
2019-05-29T04:33:47.970Z,1013.10
2019-05-29T04:34:47.957Z,1013.12
2019-05-29T04:36:40.714Z,1013.14
2019-05-29T04:37:40.664Z,1013.16
2019-05-29T04:39:34.503Z,1013.16
2019-05-29T04:40:35.023Z,1013.13
2019-05-29T04:42:26.546Z,1013.18
2019-05-29T04:43:26.384Z,1013.24
2019-05-29T04:45:19.338Z,1013.24
2019-05-29T04:46:19.196Z,1013.26
2019-05-29T04:48:12.045Z,1013.27
2019-05-29T04:49:11.931Z,1013.30
2019-05-29T04:51:04.787Z,1013.33
2019-05-29T04:52:04.723Z,1013.39
2019-05-29T04:53:57.493Z,1013.38
2019-05-29T04:54:57.482Z,1013.36
2019-05-29T04:56:50.156Z,1013.41
2019-05-29T04:57:50.977Z,1013.37
2019-05-29T04:59:42.848Z,1013.39
2019-05-29T05:00:58.213Z,1013.37
2019-05-29T05:02:35.638Z,1013.43
2019-05-29T05:03:35.625Z,1013.40
2019-05-29T05:05:29.146Z,1013.51
2019-05-29T05:06:29.134Z,1013.48
2019-05-29T05:08:21.032Z,1013.52
2019-05-29T05:09:20.953Z,1013.49
2019-05-29T05:11:13.731Z,1013.60
2019-05-29T05:12:13.649Z,1013.61
2019-05-29T05:14:06.445Z,1013.61
2019-05-29T05:15:06.410Z,1013.68
2019-05-29T05:16:59.254Z,1013.67
2019-05-29T05:17:59.190Z,1013.73
2019-05-29T05:19:51.933Z,1013.74
2019-05-29T05:20:51.890Z,1013.82
2019-05-29T05:22:44.673Z,1013.85
2019-05-29T05:23:44.575Z,1013.86
2019-05-29T05:25:38.321Z,1013.90
2019-05-29T05:26:38.425Z,1013.96
2019-05-29T05:28:30.404Z,1013.98
2019-05-29T05:29:30.180Z,1014.00
2019-05-29T05:31:22.873Z,1014.03
2019-05-29T05:32:22.796Z,1014.08
2019-05-29T05:34:15.604Z,1014.09
2019-05-29T05:35:15.518Z,1014.11
2019-05-29T05:37:08.346Z,1014.08
2019-05-29T05:38:08.252Z,1014.14
2019-05-29T05:40:01.046Z,1014.14
2019-05-29T05:41:01.006Z,1014.14
2019-05-29T05:42:53.788Z,1014.14
2019-05-29T05:43:53.706Z,1014.16
2019-05-29T05:45:46.535Z,1014.20
2019-05-29T05:46:46.461Z,1014.20
2019-05-29T05:48:39.303Z,1014.26
2019-05-29T05:49:39.558Z,1014.29
2019-05-29T05:51:33.368Z,1014.32
2019-05-29T05:52:33.661Z,1014.35
2019-05-29T05:54:24.761Z,1014.30
2019-05-29T05:55:24.675Z,1014.39
2019-05-29T05:57:17.508Z,1014.39
2019-05-29T05:58:17.416Z,1014.40
2019-05-29T06:00:10.229Z,1014.42
2019-05-29T06:01:10.182Z,1014.40
2019-05-29T06:03:03.042Z,1014.49
2019-05-29T06:04:02.946Z,1014.50
2019-05-29T06:05:55.722Z,1014.50
2019-05-29T06:06:55.645Z,1014.52
2019-05-29T06:08:48.484Z,1014.53
2019-05-29T06:09:48.366Z,1014.59
2019-05-29T06:11:42.458Z,1014.66
2019-05-29T06:12:41.094Z,1014.67
2019-05-29T06:14:34.368Z,1014.74
2019-05-29T06:15:34.333Z,1014.72
2019-05-29T06:17:26.623Z,1014.76
2019-05-29T06:18:26.564Z,1014.81
2019-05-29T06:20:19.412Z,1014.80
2019-05-29T06:21:19.301Z,1014.84
2019-05-29T06:23:12.174Z,1014.85
2019-05-29T06:24:12.078Z,1014.89
2019-05-29T06:26:04.899Z,1014.84
2019-05-29T06:27:04.832Z,1014.92
2019-05-29T06:28:57.648Z,1014.90
2019-05-29T06:29:57.562Z,1014.97
2019-05-29T06:31:50.363Z,1015.00
2019-05-29T06:32:50.288Z,1015.05
2019-05-29T06:34:43.843Z,1015.07
2019-05-29T06:35:43.763Z,1015.07
2019-05-29T06:37:35.811Z,1015.15
2019-05-29T06:38:35.742Z,1015.08
2019-05-29T06:40:28.517Z,1015.13
2019-05-29T06:41:28.470Z,1015.12
2019-05-29T06:43:21.253Z,1015.15
2019-05-29T06:44:21.187Z,1015.20
2019-05-29T06:46:13.996Z,1015.24
2019-05-29T06:47:13.922Z,1015.23
2019-05-29T06:49:06.857Z,1015.20
2019-05-29T06:50:06.767Z,1015.26
2019-05-29T06:51:59.564Z,1015.27
2019-05-29T06:52:59.486Z,1015.27
2019-05-29T06:54:52.268Z,1015.26
2019-05-29T06:55:54.704Z,1015.34
2019-05-29T06:57:45.017Z,1015.36
2019-05-29T06:58:44.943Z,1015.38
2019-05-29T07:00:39.329Z,1015.38
2019-05-29T07:01:37.781Z,1015.43
2019-05-29T07:03:30.505Z,1015.46
2019-05-29T07:04:30.426Z,1015.51
2019-05-29T07:06:23.244Z,1015.54
2019-05-29T07:07:23.190Z,1015.56
2019-05-29T07:09:16.021Z,1015.52
2019-05-29T07:10:15.971Z,1015.54
2019-05-29T07:12:08.747Z,1015.61
2019-05-29T07:13:08.661Z,1015.63
2019-05-29T07:15:01.513Z,1015.62
2019-05-29T07:16:01.435Z,1015.70
2019-05-29T07:17:54.254Z,1015.68
2019-05-29T07:19:24.001Z,1015.74
2019-05-29T07:20:47.083Z,1015.75
2019-05-29T07:21:47.248Z,1015.80
2019-05-29T07:23:41.245Z,1015.81
2019-05-29T07:24:41.110Z,1015.81
2019-05-29T07:26:32.450Z,1015.79
2019-05-29T07:27:32.394Z,1015.76
2019-05-29T07:29:25.213Z,1015.83
2019-05-29T07:30:25.134Z,1015.85
2019-05-29T07:32:17.984Z,1015.90
2019-05-29T07:33:18.062Z,1015.93
2019-05-29T07:35:10.658Z,1015.92
2019-05-29T07:36:10.594Z,1015.94
2019-05-29T07:38:03.402Z,1015.98
2019-05-29T07:39:03.938Z,1016.09
2019-05-29T07:40:56.185Z,1016.04
2019-05-29T07:41:56.129Z,1016.10
2019-05-29T07:43:48.928Z,1016.09
2019-05-29T07:44:48.847Z,1016.02
2019-05-29T07:46:42.302Z,1016.07
2019-05-29T07:47:42.690Z,1016.11
2019-05-29T07:49:39.142Z,1016.09
2019-05-29T07:50:34.424Z,1016.06
2019-05-29T07:52:27.153Z,1016.02
2019-05-29T07:53:27.086Z,1016.01
2019-05-29T07:55:23.443Z,1016.02
2019-05-29T07:56:23.043Z,1015.99
2019-05-29T07:58:12.683Z,1016.00
2019-05-29T07:59:12.600Z,1015.93
2019-05-29T08:01:13.227Z,1016.03
2019-05-29T08:02:05.658Z,1016.05
2019-05-29T08:03:58.188Z,1016.07
2019-05-29T08:04:58.116Z,1016.16
2019-05-29T08:06:54.408Z,1016.15
2019-05-29T08:07:50.887Z,1016.16
2019-05-29T08:09:43.703Z,1016.21
2019-05-29T08:10:43.626Z,1016.16
2019-05-29T08:12:41.062Z,1016.13
2019-05-29T08:13:36.417Z,1016.19
2019-05-29T08:15:29.217Z,1016.19
2019-05-29T08:16:29.150Z,1016.23
2019-05-29T08:18:22.205Z,1016.26
2019-05-29T08:19:22.068Z,1016.25
2019-05-29T08:21:14.864Z,1016.25
2019-05-29T08:22:14.804Z,1016.26
2019-05-29T08:24:07.629Z,1016.28
2019-05-29T08:25:07.543Z,1016.29
2019-05-29T08:27:00.344Z,1016.25
2019-05-29T08:28:00.429Z,1016.27
2019-05-29T08:29:53.076Z,1016.36
2019-05-29T08:30:56.394Z,1016.36
2019-05-29T08:32:46.922Z,1016.35
2019-05-29T08:33:46.753Z,1016.39
2019-05-29T08:35:38.570Z,1016.44
2019-05-29T08:36:38.477Z,1016.47
2019-05-29T08:38:31.288Z,1016.43
2019-05-29T08:39:36.518Z,1016.48
2019-05-29T08:41:24.007Z,1016.46
2019-05-29T08:42:24.058Z,1016.41
2019-05-29T08:44:16.752Z,1016.52
2019-05-29T08:45:16.666Z,1016.52
2019-05-29T08:47:10.988Z,1016.51
2019-05-29T08:48:09.456Z,1016.56
2019-05-29T08:50:17.390Z,1016.57
2019-05-29T08:51:02.216Z,1016.58
2019-05-29T08:52:54.997Z,1016.58
2019-05-29T08:53:54.972Z,1016.59
2019-05-29T08:55:49.240Z,1016.60
2019-05-29T08:56:48.581Z,1016.61
2019-05-29T08:58:42.906Z,1016.56
2019-05-29T08:59:42.117Z,1016.58
2019-05-29T09:01:34.594Z,1016.65
2019-05-29T09:02:34.504Z,1016.67
2019-05-29T09:04:27.425Z,1016.64
2019-05-29T09:05:27.290Z,1016.65
2019-05-29T09:07:20.080Z,1016.64
2019-05-29T09:08:20.042Z,1016.62
2019-05-29T09:10:12.845Z,1016.77
2019-05-29T09:11:12.770Z,1016.74
2019-05-29T09:13:05.594Z,1016.75
2019-05-29T09:14:05.523Z,1016.74
2019-05-29T09:15:58.349Z,1016.80
2019-05-29T09:16:58.299Z,1016.75
2019-05-29T09:18:51.085Z,1016.76
2019-05-29T09:19:51.015Z,1016.83
2019-05-29T09:21:43.808Z,1016.82
2019-05-29T09:22:43.862Z,1016.84
2019-05-29T09:24:36.626Z,1016.93
2019-05-29T09:25:36.495Z,1016.85
2019-05-29T09:27:29.365Z,1016.80
2019-05-29T09:28:29.331Z,1016.75
2019-05-29T09:30:22.165Z,1016.77
2019-05-29T09:31:22.258Z,1016.80
2019-05-29T09:33:16.310Z,1016.84
2019-05-29T09:34:15.504Z,1016.86
2019-05-29T09:36:07.598Z,1016.88
2019-05-29T09:37:07.531Z,1016.83
2019-05-29T09:39:00.333Z,1016.89
2019-05-29T09:40:00.309Z,1016.91
2019-05-29T09:41:53.086Z,1016.93
2019-05-29T09:42:53.003Z,1016.93
2019-05-29T09:44:45.842Z,1016.97
2019-05-29T09:45:45.743Z,1016.98
2019-05-29T09:47:38.608Z,1016.97
2019-05-29T09:48:49.205Z,1017.03
2019-05-29T09:50:48.897Z,1016.99
2019-05-29T09:51:31.265Z,1017.02
2019-05-29T09:53:24.058Z,1017.06
2019-05-29T09:54:24.094Z,1017.03
2019-05-29T09:56:17.039Z,1017.03
2019-05-29T09:57:16.871Z,1017.05
2019-05-29T09:59:09.654Z,1017.07
2019-05-29T10:00:09.589Z,1017.07
2019-05-29T10:02:07.158Z,1017.07
2019-05-29T10:03:03.786Z,1017.02
2019-05-29T10:04:56.524Z,1017.04
2019-05-29T10:05:55.806Z,1017.07
2019-05-29T10:07:47.925Z,1017.14
2019-05-29T10:08:47.811Z,1017.10
2019-05-29T10:10:40.759Z,1017.21
2019-05-29T10:11:40.703Z,1017.19
2019-05-29T10:13:33.454Z,1017.19
2019-05-29T10:14:33.409Z,1017.15
2019-05-29T10:16:26.226Z,1017.17
2019-05-29T10:17:26.151Z,1017.12
2019-05-29T10:19:18.955Z,1017.13
2019-05-29T10:20:19.011Z,1017.15
2019-05-29T10:22:11.684Z,1017.13
2019-05-29T10:23:11.601Z,1017.17
2019-05-29T10:25:05.791Z,1017.16
2019-05-29T10:26:05.037Z,1017.17
2019-05-29T10:27:57.166Z,1017.10
2019-05-29T10:30:50.276Z,1017.19
2019-05-29T10:31:02.887Z,1017.15
2019-05-29T10:31:51.089Z,1017.15
2019-05-29T10:33:44.019Z,1017.21
2019-05-29T10:34:42.585Z,1017.20
2019-05-29T10:36:35.395Z,1017.22
2019-05-29T10:37:35.323Z,1017.29
2019-05-29T10:39:28.157Z,1017.25
2019-05-29T10:40:28.070Z,1017.24
2019-05-29T10:42:21.006Z,1017.24
2019-05-29T10:43:33.646Z,1017.24
2019-05-29T10:45:13.750Z,1017.20
2019-05-29T10:46:13.652Z,1017.24
2019-05-29T10:48:06.461Z,1017.24
2019-05-29T10:49:06.409Z,1017.20
2019-05-29T10:50:59.225Z,1017.24
2019-05-29T10:52:13.703Z,1017.28
2019-05-29T10:53:55.178Z,1017.24
2019-05-29T10:54:52.439Z,1017.24
2019-05-29T10:56:44.867Z,1017.28
2019-05-29T10:57:44.847Z,1017.24
2019-05-29T10:59:37.458Z,1017.23
2019-05-29T11:00:38.994Z,1017.30
2019-05-29T11:02:30.355Z,1017.22
2019-05-29T11:03:30.195Z,1017.19
2019-05-29T11:05:23.011Z,1017.28
2019-05-29T11:06:22.916Z,1017.29
2019-05-29T11:08:15.742Z,1017.25
2019-05-29T11:09:15.697Z,1017.25
2019-05-29T11:11:08.451Z,1017.18
2019-05-29T11:12:08.407Z,1017.22
2019-05-29T11:14:01.175Z,1017.22
2019-05-29T11:15:01.131Z,1017.16
2019-05-29T11:16:55.078Z,1017.17
2019-05-29T11:17:55.238Z,1017.17
2019-05-29T11:19:47.183Z,1017.13
2019-05-29T11:20:47.255Z,1017.11
2019-05-29T11:22:39.468Z,1017.17
2019-05-29T11:23:39.399Z,1017.16
2019-05-29T11:25:32.267Z,1017.25
2019-05-29T11:26:32.158Z,1017.25
2019-05-29T11:28:24.961Z,1017.12
2019-05-29T11:29:24.862Z,1017.21
2019-05-29T11:31:17.729Z,1017.24
2019-05-29T11:32:17.727Z,1017.21
2019-05-29T11:34:10.432Z,1017.20
2019-05-29T11:35:10.376Z,1017.17
2019-05-29T11:37:03.229Z,1017.16
2019-05-29T11:38:03.108Z,1017.18
2019-05-29T11:39:56.832Z,1017.14
2019-05-29T11:41:20.227Z,1017.16
2019-05-29T11:42:48.664Z,1017.18
2019-05-29T11:43:48.555Z,1017.20
2019-05-29T11:45:41.346Z,1017.20
2019-05-29T11:46:41.301Z,1017.22
2019-05-29T11:48:34.140Z,1017.20
2019-05-29T11:49:33.998Z,1017.22
2019-05-29T11:51:26.824Z,1017.18
2019-05-29T11:52:41.690Z,1017.23
2019-05-29T11:54:19.550Z,1017.23
2019-05-29T11:55:19.451Z,1017.22
2019-05-29T11:57:12.280Z,1017.24
2019-05-29T11:58:28.110Z,1017.21
2019-05-29T12:00:14.473Z,1017.15
2019-05-29T12:01:05.002Z,1017.09
2019-05-29T12:02:57.887Z,1017.17
2019-05-29T12:04:19.191Z,1017.17
2019-05-29T12:05:51.178Z,1017.10
2019-05-29T12:06:51.187Z,1017.12
2019-05-29T12:08:43.178Z,1017.14
2019-05-29T12:09:43.120Z,1017.10
2019-05-29T12:11:35.924Z,1017.09
2019-05-29T12:12:35.839Z,1017.14
2019-05-29T12:14:28.722Z,1017.12
2019-05-29T12:15:28.555Z,1017.05
2019-05-29T12:17:21.487Z,1017.12
2019-05-29T12:18:24.158Z,1017.11
2019-05-29T12:20:27.273Z,1017.15
2019-05-29T12:21:14.073Z,1017.14
2019-05-29T12:23:22.988Z,1017.09
2019-05-29T12:24:06.789Z,1017.18
2019-05-29T12:26:16.636Z,1017.24
2019-05-29T12:27:00.572Z,1017.24
2019-05-29T12:28:53.980Z,1017.25
2019-05-29T12:29:52.594Z,1017.18
2019-05-29T12:31:45.071Z,1017.23
2019-05-29T12:32:44.954Z,1017.22
2019-05-29T12:34:50.848Z,1017.20
2019-05-29T12:35:37.771Z,1017.17
2019-05-29T12:37:30.667Z,1017.17
2019-05-29T12:38:30.562Z,1017.21
2019-05-29T12:40:23.465Z,1017.19
2019-05-29T12:41:23.383Z,1017.18
2019-05-29T12:43:26.341Z,1017.17
2019-05-29T12:44:16.136Z,1017.22
2019-05-29T12:46:08.924Z,1017.18
2019-05-29T12:47:08.892Z,1017.23
2019-05-29T12:49:01.815Z,1017.27
2019-05-29T12:50:02.666Z,1017.26
2019-05-29T12:51:55.385Z,1017.25
2019-05-29T12:52:55.715Z,1017.19
2019-05-29T12:54:47.167Z,1017.17
2019-05-29T12:55:47.128Z,1017.24
2019-05-29T12:57:39.912Z,1017.22
2019-05-29T12:58:39.790Z,1017.16
2019-05-29T13:00:32.589Z,1017.11
2019-05-29T13:01:32.495Z,1017.14
2019-05-29T13:03:25.316Z,1017.06
2019-05-29T13:04:25.210Z,1017.09
2019-05-29T13:06:18.021Z,1017.15
2019-05-29T13:07:17.970Z,1017.17
2019-05-29T13:09:10.833Z,1017.13
2019-05-29T13:10:10.745Z,1017.14
2019-05-29T13:12:04.771Z,1017.15
2019-05-29T13:13:08.724Z,1017.12
2019-05-29T13:14:56.513Z,1017.06
2019-05-29T13:15:56.677Z,1017.07
2019-05-29T13:17:48.997Z,1017.18
2019-05-29T13:18:48.894Z,1017.08
2019-05-29T13:20:41.689Z,1017.10
2019-05-29T13:21:41.625Z,1017.09
2019-05-29T13:23:44.641Z,1017.10
2019-05-29T13:24:34.372Z,1017.08
2019-05-29T13:26:27.139Z,1017.14
2019-05-29T13:27:27.093Z,1017.16
2019-05-29T13:29:19.875Z,1017.09
2019-05-29T13:30:19.779Z,1017.11
2019-05-29T13:32:12.685Z,1017.08
2019-05-29T13:33:12.572Z,1017.02
2019-05-29T13:35:06.312Z,1017.03
2019-05-29T13:36:06.722Z,1017.05
2019-05-29T13:37:58.876Z,1017.09
2019-05-29T13:38:58.118Z,1017.08
2019-05-29T13:40:50.777Z,1017.01
2019-05-29T13:41:50.713Z,1017.04
2019-05-29T13:43:43.618Z,1017.10
2019-05-29T13:44:43.624Z,1017.06
2019-05-29T13:46:36.271Z,1017.05
2019-05-29T13:47:36.171Z,1017.06
2019-05-29T13:49:29.015Z,1017.11
2019-05-29T13:50:28.946Z,1017.12
2019-05-29T13:52:21.701Z,1017.14
2019-05-29T13:53:21.646Z,1017.10
2019-05-29T13:55:14.448Z,1017.13
2019-05-29T13:56:14.362Z,1017.09
2019-05-29T13:58:07.797Z,1017.11
2019-05-29T13:59:08.259Z,1017.11
2019-05-29T14:01:00.750Z,1017.08
2019-05-29T14:02:00.276Z,1017.02
2019-05-29T14:03:52.598Z,1017.10
2019-05-29T14:04:52.525Z,1017.08
2019-05-29T14:06:45.365Z,1017.06
2019-05-29T14:07:45.253Z,1017.07
2019-05-29T14:09:38.056Z,1017.10
2019-05-29T14:10:38.102Z,1017.11
2019-05-29T14:12:30.788Z,1017.19
2019-05-29T14:13:30.721Z,1017.18
2019-05-29T14:15:23.514Z,1017.17
2019-05-29T14:16:23.424Z,1017.19
2019-05-29T14:18:16.219Z,1017.21
2019-05-29T14:19:16.155Z,1017.21
2019-05-29T14:21:09.313Z,1017.25
2019-05-29T14:22:09.296Z,1017.22
2019-05-29T14:24:07.326Z,1017.26
2019-05-29T14:25:01.716Z,1017.25
2019-05-29T14:26:54.948Z,1017.30
2019-05-29T14:27:54.886Z,1017.28
2019-05-29T14:29:47.733Z,1017.28
2019-05-29T14:30:47.591Z,1017.26
2019-05-29T14:32:40.418Z,1017.29
2019-05-29T14:33:40.372Z,1017.28
2019-05-29T14:35:33.168Z,1017.30
2019-05-29T14:36:34.126Z,1017.36
2019-05-29T14:38:26.440Z,1017.34
2019-05-29T14:39:26.288Z,1017.33
2019-05-29T14:41:18.993Z,1017.31
2019-05-29T14:42:18.990Z,1017.30
2019-05-29T14:44:12.100Z,1017.36
2019-05-29T14:45:12.457Z,1017.35
2019-05-29T14:47:04.452Z,1017.35
2019-05-29T14:48:04.473Z,1017.31
2019-05-29T14:49:57.174Z,1017.34
2019-05-29T14:50:57.109Z,1017.28
2019-05-29T14:52:50.021Z,1017.31
2019-05-29T14:53:49.962Z,1017.31
2019-05-29T14:55:42.800Z,1017.32
2019-05-29T14:56:42.934Z,1017.32
2019-05-29T14:58:35.541Z,1017.30
2019-05-29T14:59:35.502Z,1017.28
2019-05-29T15:01:28.278Z,1017.30
2019-05-29T15:02:28.295Z,1017.30
2019-05-29T15:04:20.999Z,1017.29
2019-05-29T15:05:21.868Z,1017.32
2019-05-29T15:07:14.047Z,1017.37
2019-05-29T15:08:14.153Z,1017.39
2019-05-29T15:10:17.172Z,1017.42
2019-05-29T15:11:06.331Z,1017.43
2019-05-29T15:12:59.196Z,1017.39
2019-05-29T15:13:59.076Z,1017.42
2019-05-29T15:15:51.838Z,1017.41
2019-05-29T15:16:51.758Z,1017.38
2019-05-29T15:18:44.650Z,1017.46
2019-05-29T15:19:44.576Z,1017.43
2019-05-29T15:21:37.348Z,1017.44
2019-05-29T15:22:37.293Z,1017.42
2019-05-29T15:24:30.159Z,1017.40
2019-05-29T15:25:30.066Z,1017.42
2019-05-29T15:27:22.866Z,1017.41
2019-05-29T15:28:23.431Z,1017.37
2019-05-29T15:30:20.817Z,1017.37
2019-05-29T15:31:16.565Z,1017.38
2019-05-29T15:33:08.612Z,1017.37
2019-05-29T15:34:08.264Z,1017.39
2019-05-29T15:36:01.009Z,1017.46
2019-05-29T15:37:00.941Z,1017.45
2019-05-29T15:38:53.748Z,1017.48
2019-05-29T15:39:53.708Z,1017.42
2019-05-29T15:41:46.506Z,1017.42
2019-05-29T15:42:46.394Z,1017.39
2019-05-29T15:44:39.404Z,1017.38
2019-05-29T15:45:39.355Z,1017.45
2019-05-29T15:47:32.174Z,1017.40
2019-05-29T15:48:32.905Z,1017.47
2019-05-29T15:50:26.478Z,1017.43
2019-05-29T15:51:25.313Z,1017.41
2019-05-29T15:53:17.809Z,1017.39
2019-05-29T15:54:17.776Z,1017.43
2019-05-29T15:56:22.803Z,1017.48
2019-05-29T15:57:11.030Z,1017.52
2019-05-29T15:59:03.264Z,1017.50
2019-05-29T16:00:03.208Z,1017.53
2019-05-29T16:01:56.099Z,1017.46
2019-05-29T16:02:55.946Z,1017.47
2019-05-29T16:04:48.839Z,1017.50
2019-05-29T16:05:48.688Z,1017.48
2019-05-29T16:07:41.462Z,1017.49
2019-05-29T16:08:41.367Z,1017.49
2019-05-29T16:10:34.238Z,1017.51
2019-05-29T16:11:34.164Z,1017.47
2019-05-29T16:13:26.920Z,1017.44
2019-05-29T16:14:26.881Z,1017.51
2019-05-29T16:16:19.669Z,1017.52
2019-05-29T16:17:19.581Z,1017.50
2019-05-29T16:19:12.410Z,1017.49
2019-05-29T16:20:12.456Z,1017.53
2019-05-29T16:22:05.264Z,1017.51
2019-05-29T16:23:05.051Z,1017.54
2019-05-29T16:24:57.844Z,1017.52
2019-05-29T16:25:57.772Z,1017.54
2019-05-29T16:27:50.575Z,1017.56
2019-05-29T16:28:50.510Z,1017.58
2019-05-29T16:30:43.353Z,1017.60
2019-05-29T16:31:43.264Z,1017.57
2019-05-29T16:33:36.058Z,1017.65
2019-05-29T16:34:36.012Z,1017.66
2019-05-29T16:36:28.854Z,1017.69
2019-05-29T16:37:28.861Z,1017.70
2019-05-29T16:39:22.763Z,1017.68
2019-05-29T16:40:21.948Z,1017.70
2019-05-29T16:42:14.343Z,1017.75
2019-05-29T16:43:14.199Z,1017.75
2019-05-29T16:45:06.963Z,1017.74
2019-05-29T16:46:06.913Z,1017.78
2019-05-29T16:47:59.684Z,1017.72
2019-05-29T16:48:59.639Z,1017.72
2019-05-29T16:50:52.398Z,1017.75
2019-05-29T16:51:52.333Z,1017.73
2019-05-29T16:53:45.168Z,1017.71
2019-05-29T16:54:45.109Z,1017.74
2019-05-29T16:56:37.963Z,1017.80
2019-05-29T16:57:37.863Z,1017.84
2019-05-29T16:59:30.711Z,1017.86
2019-05-29T17:00:30.622Z,1017.88
2019-05-29T17:02:23.743Z,1017.95
2019-05-29T17:03:23.828Z,1017.95
2019-05-29T17:05:16.124Z,1017.89
2019-05-29T17:06:16.059Z,1017.92
2019-05-29T17:08:09.011Z,1017.92
2019-05-29T17:09:08.907Z,1017.92
2019-05-29T17:11:04.838Z,1018.00
2019-05-29T17:12:01.675Z,1017.97
2019-05-29T17:13:54.610Z,1017.94
2019-05-29T17:14:54.489Z,1018.04
2019-05-29T17:16:47.249Z,1018.03
2019-05-29T17:17:47.125Z,1017.99
2019-05-29T17:19:40.014Z,1018.05
2019-05-29T17:20:39.852Z,1018.10
2019-05-29T17:22:32.710Z,1018.04
2019-05-29T17:23:32.768Z,1018.05
2019-05-29T17:25:28.330Z,1018.08
2019-05-29T17:26:25.379Z,1018.10